sensor_id;sensor_type;location;lat;lon;timestamp;pressure;altitude;pressure_sealevel;temperature;humidity
80500;BME280;69823;54.120;-4.710;2023-10-08T00:00:48;100604.37;;;25.45;25.71
80500;BME280;69823;54.120;-4.710;2023-10-08T00:03:14;100624.38;;;25.47;25.68
80500;BME280;69823;54.120;-4.710;2023-10-08T00:05:39;100603.11;;;25.47;25.69
80500;BME280;69823;54.120;-4.710;2023-10-08T00:08:05;100608.88;;;25.47;25.67
80500;BME280;69823;54.120;-4.710;2023-10-08T00:10:34;100591.10;;;25.73;25.66
80500;BME280;69823;54.120;-4.710;2023-10-08T00:12:58;100584.55;;;25.49;25.65
80500;BME280;69823;54.120;-4.710;2023-10-08T00:15:22;100583.01;;;25.50;25.64
80500;BME280;69823;54.120;-4.710;2023-10-08T00:17:48;100583.68;;;25.44;25.69
80500;BME280;69823;54.120;-4.710;2023-10-08T00:20:14;100590.76;;;25.69;25.69
80500;BME280;69823;54.120;-4.710;2023-10-08T00:22:39;100581.98;;;25.46;25.67
80500;BME280;69823;54.120;-4.710;2023-10-08T00:25:05;100589.99;;;25.45;25.67
80500;BME280;69823;54.120;-4.710;2023-10-08T00:27:31;100595.44;;;25.41;25.71
80500;BME280;69823;54.120;-4.710;2023-10-08T00:29:57;100589.31;;;25.45;25.68
80500;BME280;69823;54.120;-4.710;2023-10-08T00:32:22;100599.46;;;25.49;25.64
80500;BME280;69823;54.120;-4.710;2023-10-08T00:34:48;100595.14;;;25.44;25.68
80500;BME280;69823;54.120;-4.710;2023-10-08T00:37:13;100611.07;;;25.65;25.72
80500;BME280;69823;54.120;-4.710;2023-10-08T00:39:40;100615.09;;;25.42;25.71
80500;BME280;69823;54.120;-4.710;2023-10-08T00:42:06;100592.86;;;25.43;25.71
80500;BME280;69823;54.120;-4.710;2023-10-08T00:44:31;100585.39;;;25.46;25.67
80500;BME280;69823;54.120;-4.710;2023-10-08T00:46:57;100584.29;;;25.44;25.70
80500;BME280;69823;54.120;-4.710;2023-10-08T00:49:24;100584.28;;;25.67;25.69
80500;BME280;69823;54.120;-4.710;2023-10-08T00:51:49;100577.59;;;25.45;25.67
80500;BME280;69823;54.120;-4.710;2023-10-08T00:54:15;100580.24;;;25.48;25.65
80500;BME280;69823;54.120;-4.710;2023-10-08T00:56:40;100582.28;;;25.48;25.65
80500;BME280;69823;54.120;-4.710;2023-10-08T00:59:06;100589.92;;;25.67;25.69
80500;BME280;69823;54.120;-4.710;2023-10-08T01:01:31;100598.39;;;25.42;25.70
80500;BME280;69823;54.120;-4.710;2023-10-08T01:03:57;100600.13;;;25.40;25.72
80500;BME280;69823;54.120;-4.710;2023-10-08T01:06:23;100598.01;;;25.40;25.72
80500;BME280;69823;54.120;-4.710;2023-10-08T01:08:49;100607.30;;;25.41;25.71
80500;BME280;69823;54.120;-4.710;2023-10-08T01:11:16;100603.31;;;25.39;25.73
80500;BME280;69823;54.120;-4.710;2023-10-08T01:13:40;100604.56;;;25.37;25.74
80500;BME280;69823;54.120;-4.710;2023-10-08T01:16:06;100613.81;;;25.35;25.75
80500;BME280;69823;54.120;-4.710;2023-10-08T01:18:32;100623.01;;;25.34;25.77
80500;BME280;69823;54.120;-4.710;2023-10-08T01:20:58;100622.23;;;25.35;25.76
80500;BME280;69823;54.120;-4.710;2023-10-08T01:23:23;100616.88;;;25.32;25.80
80500;BME280;69823;54.120;-4.710;2023-10-08T01:25:49;100625.57;;;25.30;25.81
80500;BME280;69823;54.120;-4.710;2023-10-08T01:28:15;100639.98;;;25.29;25.82
80500;BME280;69823;54.120;-4.710;2023-10-08T01:30:42;100634.18;;;25.24;25.87
80500;BME280;69823;54.120;-4.710;2023-10-08T01:33:08;100628.22;;;25.55;25.83
80500;BME280;69823;54.120;-4.710;2023-10-08T01:35:32;100623.93;;;25.37;25.80
80500;BME280;69823;54.120;-4.710;2023-10-08T01:37:58;100620.44;;;25.58;25.80
80500;BME280;69823;54.120;-4.710;2023-10-08T01:40:24;100612.04;;;25.60;25.79
80500;BME280;69823;54.120;-4.710;2023-10-08T01:42:50;100617.72;;;25.36;25.79
80500;BME280;69823;54.120;-4.710;2023-10-08T01:45:15;100619.34;;;25.62;25.77
80500;BME280;69823;54.120;-4.710;2023-10-08T01:47:41;100626.89;;;25.32;25.82
80500;BME280;69823;54.120;-4.710;2023-10-08T01:50:08;100620.02;;;25.33;25.83
80500;BME280;69823;54.120;-4.710;2023-10-08T01:52:33;100624.48;;;25.82;25.82
80500;BME280;69823;54.120;-4.710;2023-10-08T01:54:59;100621.79;;;25.35;25.81
80500;BME280;69823;54.120;-4.710;2023-10-08T01:57:25;100615.45;;;25.59;25.80
80500;BME280;69823;54.120;-4.710;2023-10-08T01:59:50;100610.52;;;25.58;25.82
80500;BME280;69823;54.120;-4.710;2023-10-08T02:02:16;100613.21;;;25.63;25.77
80500;BME280;69823;54.120;-4.710;2023-10-08T02:04:42;100613.57;;;25.36;25.79
80500;BME280;69823;54.120;-4.710;2023-10-08T02:07:08;100609.92;;;25.38;25.79
80500;BME280;69823;54.120;-4.710;2023-10-08T02:09:34;100602.87;;;25.33;25.81
80500;BME280;69823;54.120;-4.710;2023-10-08T02:11:59;100596.89;;;25.39;25.78
80500;BME280;69823;54.120;-4.710;2023-10-08T02:14:25;100588.86;;;25.39;25.77
80500;BME280;69823;54.120;-4.710;2023-10-08T02:16:51;100584.93;;;25.34;25.81
80500;BME280;69823;54.120;-4.710;2023-10-08T02:19:17;100585.05;;;25.11;25.79
80500;BME280;69823;54.120;-4.710;2023-10-08T02:21:42;100580.59;;;25.35;25.78
80500;BME280;69823;54.120;-4.710;2023-10-08T02:24:08;100581.78;;;25.35;25.80
80500;BME280;69823;54.120;-4.710;2023-10-08T02:26:34;100581.32;;;25.34;25.81
80500;BME280;69823;54.120;-4.710;2023-10-08T02:29:00;100577.22;;;25.36;25.79
80500;BME280;69823;54.120;-4.710;2023-10-08T02:31:26;100573.90;;;25.36;25.78
80500;BME280;69823;54.120;-4.710;2023-10-08T02:33:51;100576.03;;;25.32;25.82
80500;BME280;69823;54.120;-4.710;2023-10-08T02:36:17;100575.52;;;25.32;25.82
80500;BME280;69823;54.120;-4.710;2023-10-08T02:38:43;100578.06;;;25.26;25.85
80500;BME280;69823;54.120;-4.710;2023-10-08T02:41:09;100585.74;;;25.54;25.85
80500;BME280;69823;54.120;-4.710;2023-10-08T02:43:35;100587.44;;;25.32;25.82
80500;BME280;69823;54.120;-4.710;2023-10-08T02:46:00;100589.59;;;25.29;25.85
80500;BME280;69823;54.120;-4.710;2023-10-08T02:48:26;100593.53;;;25.35;25.80
80500;BME280;69823;54.120;-4.710;2023-10-08T02:50:52;100595.21;;;25.07;25.84
80500;BME280;69823;54.120;-4.710;2023-10-08T02:53:18;100597.20;;;25.30;25.84
80500;BME280;69823;54.120;-4.710;2023-10-08T02:55:44;100591.97;;;25.29;25.86
80500;BME280;69823;54.120;-4.710;2023-10-08T02:58:10;100598.35;;;25.35;25.82
80500;BME280;69823;54.120;-4.710;2023-10-08T03:00:35;100598.25;;;24.95;26.16
80500;BME280;69823;54.120;-4.710;2023-10-08T03:03:01;100601.05;;;24.51;26.37
80500;BME280;69823;54.120;-4.710;2023-10-08T03:05:27;100600.90;;;24.48;26.65
80500;BME280;69823;54.120;-4.710;2023-10-08T03:07:53;100600.53;;;24.45;26.68
80500;BME280;69823;54.120;-4.710;2023-10-08T03:10:18;100600.97;;;24.46;26.67
80500;BME280;69823;54.120;-4.710;2023-10-08T03:12:44;100598.82;;;24.44;26.72
80500;BME280;69823;54.120;-4.710;2023-10-08T03:15:10;100599.18;;;24.38;26.77
80500;BME280;69823;54.120;-4.710;2023-10-08T03:17:36;100599.48;;;24.55;26.62
80500;BME280;69823;54.120;-4.710;2023-10-08T03:20:02;100596.77;;;24.49;26.68
80500;BME280;69823;54.120;-4.710;2023-10-08T03:22:27;100589.97;;;24.33;26.84
80500;BME280;69823;54.120;-4.710;2023-10-08T03:24:53;100580.78;;;24.29;26.88
80500;BME280;69823;54.120;-4.710;2023-10-08T03:27:19;100576.42;;;24.34;26.84
80500;BME280;69823;54.120;-4.710;2023-10-08T03:29:45;100571.40;;;24.40;26.77
80500;BME280;69823;54.120;-4.710;2023-10-08T03:32:11;100565.32;;;24.20;26.72
80500;BME280;69823;54.120;-4.710;2023-10-08T03:34:36;100556.11;;;24.47;26.70
80500;BME280;69823;54.120;-4.710;2023-10-08T03:37:02;100549.97;;;24.38;26.80
80500;BME280;69823;54.120;-4.710;2023-10-08T03:39:28;100549.75;;;24.31;26.89
80500;BME280;69823;54.120;-4.710;2023-10-08T03:41:54;100549.03;;;24.13;26.83
80500;BME280;69823;54.120;-4.710;2023-10-08T03:44:20;100545.11;;;24.51;26.70
80500;BME280;69823;54.120;-4.710;2023-10-08T03:46:45;100546.30;;;24.46;26.76
80500;BME280;69823;54.120;-4.710;2023-10-08T03:49:11;100551.30;;;24.56;26.68
80500;BME280;69823;54.120;-4.710;2023-10-08T03:51:37;100555.78;;;24.56;26.68
80500;BME280;69823;54.120;-4.710;2023-10-08T03:54:03;100548.01;;;24.98;26.51
80500;BME280;69823;54.120;-4.710;2023-10-08T03:56:29;100541.47;;;24.73;26.49
80500;BME280;69823;54.120;-4.710;2023-10-08T03:58:55;100550.12;;;24.62;26.59
80500;BME280;69823;54.120;-4.710;2023-10-08T04:01:20;100552.56;;;24.93;26.52
80500;BME280;69823;54.120;-4.710;2023-10-08T04:03:46;100548.47;;;24.65;26.56
80500;BME280;69823;54.120;-4.710;2023-10-08T04:06:12;100552.20;;;24.55;26.67
80500;BME280;69823;54.120;-4.710;2023-10-08T04:08:38;100555.82;;;24.48;26.73
80500;BME280;69823;54.120;-4.710;2023-10-08T04:11:03;100552.33;;;24.45;26.78
80500;BME280;69823;54.120;-4.710;2023-10-08T04:13:29;100547.03;;;23.97;26.76
80500;BME280;69823;54.120;-4.710;2023-10-08T04:15:55;100545.27;;;24.37;26.86
80500;BME280;69823;54.120;-4.710;2023-10-08T04:18:21;100543.91;;;24.29;26.93
80500;BME280;69823;54.120;-4.710;2023-10-08T04:20:47;100545.36;;;24.39;26.84
80500;BME280;69823;54.120;-4.710;2023-10-08T04:23:12;100543.52;;;24.47;26.98
80500;BME280;69823;54.120;-4.710;2023-10-08T04:25:38;100544.86;;;24.16;27.08
80500;BME280;69823;54.120;-4.710;2023-10-08T04:28:04;100543.34;;;24.67;26.82
80500;BME280;69823;54.120;-4.710;2023-10-08T04:30:32;100534.71;;;24.44;26.78
80500;BME280;69823;54.120;-4.710;2023-10-08T04:32:56;100532.44;;;24.67;26.78
80500;BME280;69823;54.120;-4.710;2023-10-08T04:35:21;100525.99;;;24.48;26.74
80500;BME280;69823;54.120;-4.710;2023-10-08T04:37:47;100532.40;;;24.41;26.80
80500;BME280;69823;54.120;-4.710;2023-10-08T04:40:13;100535.92;;;24.52;26.70
80500;BME280;69823;54.120;-4.710;2023-10-08T04:42:39;100534.71;;;24.47;26.73
80500;BME280;69823;54.120;-4.710;2023-10-08T04:45:06;100533.81;;;24.43;26.78
80500;BME280;69823;54.120;-4.710;2023-10-08T04:47:30;100533.05;;;24.51;26.68
80500;BME280;69823;54.120;-4.710;2023-10-08T04:49:56;100520.97;;;24.48;26.73
80500;BME280;69823;54.120;-4.710;2023-10-08T04:52:22;100520.93;;;24.73;26.70
80500;BME280;69823;54.120;-4.710;2023-10-08T04:54:48;100533.68;;;24.45;26.77
80500;BME280;69823;54.120;-4.710;2023-10-08T04:57:14;100533.46;;;24.17;26.82
80500;BME280;69823;54.120;-4.710;2023-10-08T04:59:39;100535.91;;;24.48;26.74
80500;BME280;69823;54.120;-4.710;2023-10-08T05:02:05;100538.42;;;24.53;26.70
80500;BME280;69823;54.120;-4.710;2023-10-08T05:04:31;100533.64;;;24.93;26.53
80500;BME280;69823;54.120;-4.710;2023-10-08T05:06:57;100527.02;;;24.67;26.54
80500;BME280;69823;54.120;-4.710;2023-10-08T05:09:23;100519.16;;;24.89;26.55
80500;BME280;69823;54.120;-4.710;2023-10-08T05:11:50;100512.86;;;24.29;26.66
80500;BME280;69823;54.120;-4.710;2023-10-08T05:14:15;100509.21;;;24.45;26.52
80500;BME280;69823;54.120;-4.710;2023-10-08T05:16:40;100498.35;;;24.64;26.56
80500;BME280;69823;54.120;-4.710;2023-10-08T05:19:06;100505.06;;;24.58;26.40
80500;BME280;69823;54.120;-4.710;2023-10-08T05:21:31;100513.68;;;24.85;26.36
80500;BME280;69823;54.120;-4.710;2023-10-08T05:23:57;100516.37;;;24.55;26.42
80500;BME280;69823;54.120;-4.710;2023-10-08T05:26:23;100506.95;;;24.36;26.38
80500;BME280;69823;54.120;-4.710;2023-10-08T05:28:49;100508.19;;;24.75;26.43
80500;BME280;69823;54.120;-4.710;2023-10-08T05:31:15;100503.56;;;24.74;26.45
80500;BME280;69823;54.120;-4.710;2023-10-08T05:33:41;100500.43;;;25.22;26.45
80500;BME280;69823;54.120;-4.710;2023-10-08T05:36:06;100518.43;;;24.70;26.49
80500;BME280;69823;54.120;-4.710;2023-10-08T05:38:32;100512.27;;;24.45;26.51
80500;BME280;69823;54.120;-4.710;2023-10-08T05:40:58;100506.36;;;24.71;26.50
80500;BME280;69823;54.120;-4.710;2023-10-08T05:43:24;100509.31;;;24.59;26.63
80500;BME280;69823;54.120;-4.710;2023-10-08T05:45:49;100507.43;;;24.53;26.66
80500;BME280;69823;54.120;-4.710;2023-10-08T05:48:15;100509.18;;;24.36;26.59
80500;BME280;69823;54.120;-4.710;2023-10-08T05:50:41;100505.20;;;24.59;26.61
80500;BME280;69823;54.120;-4.710;2023-10-08T05:53:07;100496.31;;;24.31;26.65
80500;BME280;69823;54.120;-4.710;2023-10-08T05:55:33;100514.25;;;24.66;26.57
80500;BME280;69823;54.120;-4.710;2023-10-08T05:58:00;100508.24;;;24.88;26.56
80500;BME280;69823;54.120;-4.710;2023-10-08T06:00:24;100523.27;;;24.70;26.51
80500;BME280;69823;54.120;-4.710;2023-10-08T06:02:50;100524.65;;;24.66;26.54
80500;BME280;69823;54.120;-4.710;2023-10-08T06:05:16;100528.06;;;24.35;26.62
80500;BME280;69823;54.120;-4.710;2023-10-08T06:07:43;100523.99;;;24.69;26.52
80500;BME280;69823;54.120;-4.710;2023-10-08T06:10:08;100526.17;;;24.66;26.55
80500;BME280;69823;54.120;-4.710;2023-10-08T06:12:33;100534.72;;;24.55;26.45
80500;BME280;69823;54.120;-4.710;2023-10-08T06:14:59;100539.51;;;24.60;26.38
80500;BME280;69823;54.120;-4.710;2023-10-08T06:17:25;100543.93;;;24.75;26.45
80500;BME280;69823;54.120;-4.710;2023-10-08T06:19:51;100544.03;;;24.86;26.59
80500;BME280;69823;54.120;-4.710;2023-10-08T06:22:16;100540.08;;;24.90;26.54
80500;BME280;69823;54.120;-4.710;2023-10-08T06:24:42;100540.63;;;24.93;26.52
80500;BME280;69823;54.120;-4.710;2023-10-08T06:27:08;100540.52;;;24.70;26.52
80500;BME280;69823;54.120;-4.710;2023-10-08T06:29:34;100540.66;;;24.55;26.65
80500;BME280;69823;54.120;-4.710;2023-10-08T06:32:00;100533.77;;;24.55;26.67
80500;BME280;69823;54.120;-4.710;2023-10-08T06:34:26;100532.13;;;24.59;26.62
80500;BME280;69823;54.120;-4.710;2023-10-08T06:36:51;100531.82;;;24.61;26.60
80500;BME280;69823;54.120;-4.710;2023-10-08T06:39:17;100530.06;;;24.65;26.56
80500;BME280;69823;54.120;-4.710;2023-10-08T06:41:43;100538.45;;;24.59;26.61
80500;BME280;69823;54.120;-4.710;2023-10-08T06:44:09;100548.29;;;24.68;26.54
80500;BME280;69823;54.120;-4.710;2023-10-08T06:46:34;100552.77;;;24.66;26.55
80500;BME280;69823;54.120;-4.710;2023-10-08T06:49:02;100550.82;;;24.58;26.62
80500;BME280;69823;54.120;-4.710;2023-10-08T06:51:26;100552.24;;;24.52;26.69
80500;BME280;69823;54.120;-4.710;2023-10-08T06:53:52;100552.72;;;24.62;26.60
80500;BME280;69823;54.120;-4.710;2023-10-08T06:56:18;100553.20;;;24.62;26.59
80500;BME280;69823;54.120;-4.710;2023-10-08T06:58:44;100558.28;;;24.57;26.63
80500;BME280;69823;54.120;-4.710;2023-10-08T07:01:09;100559.98;;;24.71;26.50
80500;BME280;69823;54.120;-4.710;2023-10-08T07:03:36;100556.61;;;24.94;26.51
80500;BME280;69823;54.120;-4.710;2023-10-08T07:06:01;100551.03;;;24.48;26.48
80500;BME280;69823;54.120;-4.710;2023-10-08T07:08:28;100554.32;;;24.49;26.47
80500;BME280;69823;54.120;-4.710;2023-10-08T07:10:53;100558.27;;;24.70;26.51
80500;BME280;69823;54.120;-4.710;2023-10-08T07:13:19;100565.90;;;24.61;26.60
80500;BME280;69823;54.120;-4.710;2023-10-08T07:15:44;100558.52;;;24.61;26.60
80500;BME280;69823;54.120;-4.710;2023-10-08T07:18:10;100557.19;;;24.68;26.52
80500;BME280;69823;54.120;-4.710;2023-10-08T07:20:37;100549.35;;;24.84;26.58
80500;BME280;69823;54.120;-4.710;2023-10-08T07:23:01;100554.70;;;24.53;26.65
80500;BME280;69823;54.120;-4.710;2023-10-08T07:25:27;100561.07;;;24.57;26.65
80500;BME280;69823;54.120;-4.710;2023-10-08T07:27:53;100565.93;;;24.43;26.53
80500;BME280;69823;54.120;-4.710;2023-10-08T07:30:19;100559.31;;;24.54;26.67
80500;BME280;69823;54.120;-4.710;2023-10-08T07:32:45;100556.24;;;24.34;26.89
80500;BME280;69823;54.120;-4.710;2023-10-08T07:35:10;100549.93;;;24.73;26.74
80500;BME280;69823;54.120;-4.710;2023-10-08T07:37:36;100537.73;;;24.93;26.34
80500;BME280;69823;54.120;-4.710;2023-10-08T07:40:02;100536.48;;;24.59;26.42
80500;BME280;69823;54.120;-4.710;2023-10-08T07:42:28;100543.28;;;24.84;26.50
80500;BME280;69823;54.120;-4.710;2023-10-08T07:44:54;100554.20;;;24.59;26.48
80500;BME280;69823;54.120;-4.710;2023-10-08T07:47:19;100559.08;;;24.60;26.50
80500;BME280;69823;54.120;-4.710;2023-10-08T07:49:45;100558.56;;;24.55;26.54
80500;BME280;69823;54.120;-4.710;2023-10-08T07:52:11;100549.16;;;24.48;26.62
80500;BME280;69823;54.120;-4.710;2023-10-08T07:54:37;100550.01;;;24.48;26.62
80500;BME280;69823;54.120;-4.710;2023-10-08T07:57:03;100547.06;;;24.48;26.62
80500;BME280;69823;54.120;-4.710;2023-10-08T07:59:28;100556.04;;;24.35;26.75
80500;BME280;69823;54.120;-4.710;2023-10-08T08:01:54;100558.83;;;24.66;26.94
80500;BME280;69823;54.120;-4.710;2023-10-08T08:04:20;100565.63;;;24.15;26.98
80500;BME280;69823;54.120;-4.710;2023-10-08T08:06:46;100554.86;;;24.03;27.11
80500;BME280;69823;54.120;-4.710;2023-10-08T08:09:12;100550.78;;;24.21;27.17
80500;BME280;69823;54.120;-4.710;2023-10-08T08:11:38;100546.02;;;23.65;27.26
80500;BME280;69823;54.120;-4.710;2023-10-08T08:14:03;100555.94;;;23.95;27.21
80500;BME280;69823;54.120;-4.710;2023-10-08T08:16:29;100559.10;;;23.87;27.29
80500;BME280;69823;54.120;-4.710;2023-10-08T08:18:55;100563.95;;;23.86;27.31
80500;BME280;69823;54.120;-4.710;2023-10-08T08:21:21;100559.61;;;24.10;27.30
80500;BME280;69823;54.120;-4.710;2023-10-08T08:23:47;100560.59;;;23.84;27.30
80500;BME280;69823;54.120;-4.710;2023-10-08T08:26:13;100563.02;;;24.00;27.17
80500;BME280;69823;54.120;-4.710;2023-10-08T08:28:38;100561.67;;;24.27;26.88
80500;BME280;69823;54.120;-4.710;2023-10-08T08:31:05;100556.84;;;24.53;26.65
80500;BME280;69823;54.120;-4.710;2023-10-08T08:33:30;100557.77;;;24.54;26.64
80500;BME280;69823;54.120;-4.710;2023-10-08T08:35:59;100564.80;;;24.41;26.73
80500;BME280;69823;54.120;-4.710;2023-10-08T08:38:21;100573.40;;;24.21;26.94
80500;BME280;69823;54.120;-4.710;2023-10-08T08:40:47;100576.21;;;24.00;27.13
80500;BME280;69823;54.120;-4.710;2023-10-08T08:43:13;100581.85;;;23.56;27.31
80500;BME280;69823;54.120;-4.710;2023-10-08T08:45:39;100576.13;;;23.78;27.33
80500;BME280;69823;54.120;-4.710;2023-10-08T08:48:06;100582.96;;;23.67;27.44
80500;BME280;69823;54.120;-4.710;2023-10-08T08:50:30;100587.47;;;23.90;27.45
80500;BME280;69823;54.120;-4.710;2023-10-08T08:52:55;100589.20;;;23.87;27.48
80500;BME280;69823;54.120;-4.710;2023-10-08T08:55:21;100593.55;;;23.58;27.52
80500;BME280;69823;54.120;-4.710;2023-10-08T08:57:48;100603.48;;;23.63;27.50
80500;BME280;69823;54.120;-4.710;2023-10-08T09:00:13;100617.94;;;23.62;27.50
80500;BME280;69823;54.120;-4.710;2023-10-08T09:02:38;100628.25;;;24.15;27.23
80500;BME280;69823;54.120;-4.710;2023-10-08T09:05:03;100630.43;;;24.07;27.18
80500;BME280;69823;54.120;-4.710;2023-10-08T09:07:29;100629.43;;;24.30;26.98
80500;BME280;69823;54.120;-4.710;2023-10-08T09:09:57;100632.69;;;24.07;27.25
80500;BME280;69823;54.120;-4.710;2023-10-08T09:12:20;100642.41;;;23.94;27.36
80500;BME280;69823;54.120;-4.710;2023-10-08T09:14:46;100646.74;;;24.08;27.17
80500;BME280;69823;54.120;-4.710;2023-10-08T09:17:12;100644.02;;;24.02;27.31
80500;BME280;69823;54.120;-4.710;2023-10-08T09:19:38;100634.19;;;24.34;26.90
80500;BME280;69823;54.120;-4.710;2023-10-08T09:22:04;100635.21;;;24.45;26.81
80500;BME280;69823;54.120;-4.710;2023-10-08T09:24:28;100642.36;;;24.73;26.76
80500;BME280;69823;54.120;-4.710;2023-10-08T09:26:54;100641.08;;;24.38;26.87
80500;BME280;69823;54.120;-4.710;2023-10-08T09:29:22;100636.97;;;24.52;26.94
80500;BME280;69823;54.120;-4.710;2023-10-08T09:31:51;100631.89;;;24.15;27.06
80500;BME280;69823;54.120;-4.710;2023-10-08T09:34:16;100631.03;;;24.05;27.18
80500;BME280;69823;54.120;-4.710;2023-10-08T09:36:36;100636.54;;;24.10;27.13
80500;BME280;69823;54.120;-4.710;2023-10-08T09:39:03;100634.90;;;24.09;27.12
80500;BME280;69823;54.120;-4.710;2023-10-08T09:41:29;100631.97;;;24.14;27.09
80500;BME280;69823;54.120;-4.710;2023-10-08T09:43:53;100638.67;;;24.21;27.01
80500;BME280;69823;54.120;-4.710;2023-10-08T09:46:20;100636.34;;;23.92;27.04
80500;BME280;69823;54.120;-4.710;2023-10-08T09:48:50;100630.12;;;24.19;27.04
80500;BME280;69823;54.120;-4.710;2023-10-08T09:51:11;100640.95;;;24.45;27.00
80500;BME280;69823;54.120;-4.710;2023-10-08T09:53:43;100636.34;;;24.43;27.02
80500;BME280;69823;54.120;-4.710;2023-10-08T09:56:10;100636.31;;;24.67;27.02
80500;BME280;69823;54.120;-4.710;2023-10-08T09:58:29;100639.28;;;24.25;26.97
80500;BME280;69823;54.120;-4.710;2023-10-08T10:00:56;100631.64;;;24.27;26.94
80500;BME280;69823;54.120;-4.710;2023-10-08T10:03:19;100633.41;;;24.28;26.92
80500;BME280;69823;54.120;-4.710;2023-10-08T10:05:45;100633.84;;;24.32;26.87
80500;BME280;69823;54.120;-4.710;2023-10-08T10:08:10;100621.96;;;24.04;26.91
80500;BME280;69823;54.120;-4.710;2023-10-08T10:10:37;100614.44;;;24.62;26.83
80500;BME280;69823;54.120;-4.710;2023-10-08T10:13:03;100611.93;;;24.60;26.83
80500;BME280;69823;54.120;-4.710;2023-10-08T10:15:27;100611.16;;;24.39;26.82
80500;BME280;69823;54.120;-4.710;2023-10-08T10:17:53;100613.61;;;24.75;26.70
80500;BME280;69823;54.120;-4.710;2023-10-08T10:20:20;100617.79;;;24.73;26.71
80500;BME280;69823;54.120;-4.710;2023-10-08T10:22:44;100623.37;;;24.56;26.64
80500;BME280;69823;54.120;-4.710;2023-10-08T10:25:09;100617.46;;;24.52;26.68
80500;BME280;69823;54.120;-4.710;2023-10-08T10:27:35;100609.38;;;24.50;26.70
80500;BME280;69823;54.120;-4.710;2023-10-08T10:30:02;100605.52;;;24.42;26.76
80500;BME280;69823;54.120;-4.710;2023-10-08T10:32:26;100611.26;;;24.46;26.73
80500;BME280;69823;54.120;-4.710;2023-10-08T10:34:52;100615.52;;;24.60;26.59
80500;BME280;69823;54.120;-4.710;2023-10-08T10:37:19;100611.04;;;24.64;26.55
80500;BME280;69823;54.120;-4.710;2023-10-08T10:39:52;100600.44;;;24.78;26.64
80500;BME280;69823;54.120;-4.710;2023-10-08T10:42:09;100604.14;;;24.64;26.55
80500;BME280;69823;54.120;-4.710;2023-10-08T10:44:35;100599.79;;;24.64;26.54
80500;BME280;69823;54.120;-4.710;2023-10-08T10:47:01;100598.91;;;24.65;26.52
80500;BME280;69823;54.120;-4.710;2023-10-08T10:49:27;100597.28;;;24.60;26.57
80500;BME280;69823;54.120;-4.710;2023-10-08T10:51:52;100597.33;;;24.65;26.53
80500;BME280;69823;54.120;-4.710;2023-10-08T10:54:20;100594.82;;;24.78;26.62
80500;BME280;69823;54.120;-4.710;2023-10-08T10:56:44;100594.18;;;24.46;26.70
80500;BME280;69823;54.120;-4.710;2023-10-08T10:59:10;100593.03;;;24.77;26.63
80500;BME280;69823;54.120;-4.710;2023-10-08T11:01:35;100561.03;;;24.59;26.59
80500;BME280;69823;54.120;-4.710;2023-10-08T11:04:01;100553.29;;;24.52;26.66
80500;BME280;69823;54.120;-4.710;2023-10-08T11:06:26;100533.77;;;24.45;26.71
80500;BME280;69823;54.120;-4.710;2023-10-08T11:08:53;100541.23;;;24.45;26.73
80500;BME280;69823;54.120;-4.710;2023-10-08T11:11:18;100556.26;;;24.56;26.63
80500;BME280;69823;54.120;-4.710;2023-10-08T11:13:43;100550.21;;;24.64;26.55
80500;BME280;69823;54.120;-4.710;2023-10-08T11:16:09;100557.89;;;24.56;26.61
80500;BME280;69823;54.120;-4.710;2023-10-08T11:18:42;100556.74;;;24.85;26.57
80500;BME280;69823;54.120;-4.710;2023-10-08T11:21:08;100552.36;;;24.59;26.59
80500;BME280;69823;54.120;-4.710;2023-10-08T11:23:31;100549.80;;;24.52;26.65
80500;BME280;69823;54.120;-4.710;2023-10-08T11:25:53;100547.83;;;24.56;26.62
80500;BME280;69823;54.120;-4.710;2023-10-08T11:28:18;100541.31;;;24.96;26.68
80500;BME280;69823;54.120;-4.710;2023-10-08T11:30:43;100546.73;;;24.58;26.60
80500;BME280;69823;54.120;-4.710;2023-10-08T11:33:09;100556.70;;;24.52;26.65
80500;BME280;69823;54.120;-4.710;2023-10-08T11:35:35;100540.12;;;24.50;26.67
80500;BME280;69823;54.120;-4.710;2023-10-08T11:38:01;100538.07;;;24.26;26.67
80500;BME280;69823;54.120;-4.710;2023-10-08T11:40:27;100538.92;;;24.18;26.76
80500;BME280;69823;54.120;-4.710;2023-10-08T11:42:52;100532.12;;;24.68;26.73
80500;BME280;69823;54.120;-4.710;2023-10-08T11:45:18;100536.84;;;24.39;26.79
80500;BME280;69823;54.120;-4.710;2023-10-08T11:47:45;100533.72;;;24.42;26.78
80500;BME280;69823;54.120;-4.710;2023-10-08T11:50:10;100533.83;;;24.47;26.73
80500;BME280;69823;54.120;-4.710;2023-10-08T11:52:36;100541.04;;;24.22;26.72
80500;BME280;69823;54.120;-4.710;2023-10-08T11:55:01;100549.44;;;24.54;26.66
80500;BME280;69823;54.120;-4.710;2023-10-08T11:57:27;100563.14;;;24.80;26.63
80500;BME280;69823;54.120;-4.710;2023-10-08T11:59:53;100569.82;;;24.57;26.62
80500;BME280;69823;54.120;-4.710;2023-10-08T12:02:19;100573.69;;;24.81;26.61
80500;BME280;69823;54.120;-4.710;2023-10-08T12:04:44;100566.28;;;24.52;26.67
80500;BME280;69823;54.120;-4.710;2023-10-08T12:07:10;100569.48;;;24.80;26.62
80500;BME280;69823;54.120;-4.710;2023-10-08T12:09:36;100571.92;;;24.51;26.65
80500;BME280;69823;54.120;-4.710;2023-10-08T12:12:02;100571.79;;;24.47;26.70
80500;BME280;69823;54.120;-4.710;2023-10-08T12:14:28;100570.30;;;24.53;26.66
80500;BME280;69823;54.120;-4.710;2023-10-08T12:16:53;100567.77;;;24.48;26.67
80500;BME280;69823;54.120;-4.710;2023-10-08T12:19:19;100565.28;;;24.39;26.78
80500;BME280;69823;54.120;-4.710;2023-10-08T12:21:46;100563.82;;;24.42;26.75
80500;BME280;69823;54.120;-4.710;2023-10-08T12:24:11;100564.15;;;24.31;26.86
80500;BME280;69823;54.120;-4.710;2023-10-08T12:26:37;100563.84;;;24.15;27.02
80500;BME280;69823;54.120;-4.710;2023-10-08T12:29:02;100540.53;;;24.38;27.03
80500;BME280;69823;54.120;-4.710;2023-10-08T12:31:28;100544.37;;;24.15;27.03